Time;durP1;ratioP1;P1;durP2;ratioP2;P2;SDS_P1;SDS_P2;PMS_P1;PMS_P2;Temp;Humidity;BMP_temperature;BMP_pressure;BME280_temperature;BME280_humidity;BME280_pressure;Samples;Min_cycle;Max_cycle;Signal;HPM_P1;HPM_P2
2024/03/08 00:01:51;;;;;;;41.92;22.55;;;11.50;99.90;;;;;;7398884;19;20014;-76
2024/03/08 00:04:23;;;;;;;45.10;22.08;;;11.50;99.90;;;;;;7376768;19;20007;-76
2024/03/08 00:06:52;;;;;;;49.63;22.35;;;11.40;99.90;;;;;;7376988;19;20002;-76
2024/03/08 00:09:21;;;;;;;51.38;22.77;;;11.40;99.90;;;;;;7377198;19;20077;-76
2024/03/08 00:11:52;;;;;;;39.42;21.77;;;11.40;99.90;;;;;;7377950;19;20013;-77
2024/03/08 00:14:21;;;;;;;49.88;23.42;;;11.50;99.90;;;;;;7376518;19;20071;-77
2024/03/08 00:16:52;;;;;;;41.28;21.40;;;11.50;99.90;;;;;;7399243;19;19999;-76
2024/03/08 00:19:23;;;;;;;47.78;23.17;;;11.40;99.90;;;;;;7377499;19;20467;-76
2024/03/08 00:21:52;;;;;;;48.95;21.85;;;11.40;99.90;;;;;;7376570;19;20003;-76
2024/03/08 00:24:24;;;;;;;48.05;22.65;;;11.40;99.90;;;;;;7377533;19;20068;-75
2024/03/08 00:26:53;;;;;;;;;;;11.40;99.90;;;;;;7377879;19;20010;-75
2024/03/08 00:29:22;;;;;;;54.33;22.08;;;11.40;99.90;;;;;;7377805;19;19914;-77
2024/03/08 00:31:51;;;;;;;50.53;23.05;;;11.30;99.90;;;;;;7398189;19;20006;-76
2024/03/08 00:34:19;;;;;;;49.17;23.40;;;11.30;99.90;;;;;;7376022;19;20019;-75
2024/03/08 00:36:51;;;;;;;48.85;22.90;;;11.30;99.90;;;;;;7383537;19;20321;-76
2024/03/08 00:39:21;;;;;;;46.92;22.33;;;11.20;99.90;;;;;;7384521;19;20003;-75
2024/03/08 00:41:52;;;;;;;44.38;20.88;;;11.20;99.90;;;;;;7382887;19;20003;-75
2024/03/08 00:44:21;;;;;;;52.22;23.30;;;11.20;99.90;;;;;;7383901;19;20250;-75
2024/03/08 00:46:50;;;;;;;44.13;23.02;;;11.20;99.90;;;;;;7405145;19;20025;-75
2024/03/08 00:49:18;;;;;;;51.13;22.85;;;11.20;99.90;;;;;;7383367;19;20067;-76
2024/03/08 00:51:50;;;;;;;45.30;23.00;;;11.20;99.90;;;;;;7383054;19;20248;-76
2024/03/08 00:54:18;;;;;;;;;;;11.10;99.90;;;;;;7385271;19;20003;-75
2024/03/08 00:56:47;;;;;;;50.05;20.55;;;11.20;99.90;;;;;;7384122;19;19909;-75
2024/03/08 00:59:16;;;;;;;41.72;20.90;;;11.10;99.90;;;;;;7384142;19;20067;-75
2024/03/08 01:01:45;;;;;;;46.00;21.25;;;11.20;99.90;;;;;;7404840;19;20017;-75
2024/03/08 01:04:14;;;;;;;49.13;22.48;;;11.10;99.90;;;;;;7382627;19;20063;-77
2024/03/08 01:06:45;;;;;;;50.22;21.73;;;11.20;99.90;;;;;;7383406;19;20015;-76
2024/03/08 01:09:17;;;;;;;43.35;23.05;;;11.20;99.90;;;;;;7382613;19;20007;-76
2024/03/08 01:11:47;;;;;;;48.17;23.33;;;11.10;99.90;;;;;;7381454;19;20003;-76
2024/03/08 01:14:16;;;;;;;45.83;23.13;;;11.20;99.90;;;;;;7383522;19;20014;-76
2024/03/08 01:16:44;;;;;;;45.50;22.52;;;11.20;99.90;;;;;;7404949;19;20365;-76
2024/03/08 01:19:13;;;;;;;49.38;22.17;;;11.10;99.90;;;;;;7382782;19;20014;-75
2024/03/08 01:21:43;;;;;;;43.92;21.42;;;11.10;99.90;;;;;;7382988;19;20052;-76
2024/03/08 01:24:12;;;;;;;45.08;23.48;;;11.10;99.90;;;;;;7382762;19;20484;-76
2024/03/08 01:26:43;;;;;;;51.85;22.40;;;11.10;99.90;;;;;;7383098;19;20032;-76
2024/03/08 01:29:12;;;;;;;49.40;23.25;;;11.10;99.90;;;;;;7382236;19;20003;-76
2024/03/08 01:31:41;;;;;;;42.53;21.83;;;11.10;99.90;;;;;;7403570;19;20056;-76
2024/03/08 01:34:10;;;;;;;45.33;22.83;;;11.10;99.90;;;;;;7381825;19;20045;-76
2024/03/08 01:36:39;;;;;;;47.10;22.50;;;11.00;99.90;;;;;;7382356;19;20011;-76
2024/03/08 01:39:09;;;;;;;47.42;22.08;;;11.00;99.90;;;;;;7382910;19;20087;-76
2024/03/08 01:41:35;;;;;;;48.00;23.08;;;11.00;99.90;;;;;;7381418;19;20022;-76
2024/03/08 01:44:07;;;;;;;46.80;22.65;;;11.00;99.90;;;;;;7404345;19;20029;-76
2024/03/08 01:46:37;;;;;;;46.72;23.02;;;11.00;99.90;;;;;;7384173;19;20016;-75
2024/03/08 01:49:06;;;;;;;50.47;22.30;;;11.00;99.90;;;;;;7382629;19;20397;-76
2024/03/08 01:51:35;;;;;;;45.47;22.50;;;11.00;99.90;;;;;;7381977;19;20500;-76
2024/03/08 01:54:06;;;;;;;52.92;24.27;;;11.00;99.90;;;;;;7382359;19;20575;-76
2024/03/08 01:56:36;;;;;;;51.85;23.48;;;11.00;99.90;;;;;;7381928;19;20377;-77
2024/03/08 01:59:08;;;;;;;54.15;23.88;;;11.00;99.90;;;;;;7411016;19;20019;-75
2024/03/08 02:01:37;;;;;;;51.75;23.60;;;10.90;99.90;;;;;;7389741;19;20374;-76
2024/03/08 02:04:08;;;;;;;45.80;23.58;;;10.90;99.90;;;;;;7389235;19;20003;-77
2024/03/08 02:06:37;;;;;;;41.80;21.98;;;10.90;99.90;;;;;;7389220;19;20338;-77
2024/03/08 02:09:07;;;;;;;49.45;23.33;;;10.90;99.90;;;;;;7389637;19;20034;-76
2024/03/08 02:11:37;;;;;;;49.88;22.20;;;10.90;99.90;;;;;;7389397;19;20018;-75
2024/03/08 02:14:09;;;;;;;51.00;24.05;;;10.90;99.90;;;;;;7403583;19;20063;-75
2024/03/08 02:16:38;;;;;;;48.38;23.17;;;10.80;99.90;;;;;;7380852;19;20006;-76
2024/03/08 02:19:10;;;;;;;51.05;23.50;;;10.80;99.90;;;;;;7380504;19;20046;-77
2024/03/08 02:21:41;;;;;;;53.25;24.42;;;10.70;99.90;;;;;;7381198;19;20023;-77
2024/03/08 02:24:10;;;;;;;51.53;23.58;;;10.70;99.90;;;;;;7380991;19;20006;-76
2024/03/08 02:26:39;;;;;;;46.47;23.25;;;10.70;99.90;;;;;;7381086;19;20020;-76
2024/03/08 02:29:08;;;;;;;54.60;24.70;;;10.80;99.90;;;;;;7400957;19;20422;-76
2024/03/08 02:31:39;;;;;;;48.85;23.27;;;10.70;99.90;;;;;;7379797;19;20023;-77
2024/03/08 02:34:07;;;;;;;49.20;23.58;;;10.70;99.90;;;;;;7380176;19;20014;-76
2024/03/08 02:36:36;;;;;;;48.45;23.48;;;10.70;99.90;;;;;;7380880;19;20016;-75
2024/03/08 02:39:10;;;;;;;61.33;25.60;;;10.70;99.90;;;;;;7380124;19;20091;-77
2024/03/08 02:41:39;;;;;;;55.00;24.25;;;10.70;99.90;;;;;;7379520;19;20007;-76
2024/03/08 02:44:07;;;;;;;51.08;24.13;;;10.70;99.90;;;;;;7402567;19;20010;-77
2024/03/08 02:46:36;;;;;;;49.42;24.30;;;10.70;99.90;;;;;;7379036;19;20026;-76
2024/03/08 02:49:06;;;;;;;63.97;26.05;;;10.70;99.90;;;;;;7378380;19;20010;-75
2024/03/08 02:51:35;;;;;;;53.00;24.67;;;10.70;99.90;;;;;;7380510;19;20058;-76
2024/03/08 02:54:03;;;;;;;52.05;24.10;;;10.60;99.90;;;;;;7379741;19;20007;-75
2024/03/08 02:56:35;;;;;;;51.05;24.00;;;10.60;99.90;;;;;;7378212;19;20098;-76
2024/03/08 02:59:04;;;;;;;52.60;25.20;;;10.60;99.90;;;;;;7397056;19;20006;-76
2024/03/08 03:01:33;;;;;;;53.28;25.02;;;10.60;99.90;;;;;;7378728;19;20071;-76
2024/03/08 03:04:01;;;;;;;57.00;24.85;;;10.60;99.90;;;;;;7379424;19;20281;-76
2024/03/08 03:06:31;;;;;;;52.67;24.05;;;10.60;99.90;;;;;;7379800;19;20009;-76
2024/03/08 03:09:00;;;;;;;48.70;23.58;;;10.60;99.90;;;;;;7379609;19;20002;-76
2024/03/08 03:11:28;;;;;;;47.47;23.25;;;10.60;99.90;;;;;;7378903;19;20369;-75
2024/03/08 03:14:00;;;;;;;58.08;24.77;;;10.60;99.90;;;;;;7399602;19;20397;-76
2024/03/08 03:16:28;;;;;;;;;;;10.60;99.90;;;;;;7379384;19;20010;-77
2024/03/08 03:18:58;;;;;;;51.42;21.80;;;10.60;99.90;;;;;;7378200;19;19930;-76
2024/03/08 03:21:27;;;;;;;49.33;23.50;;;10.50;99.90;;;;;;7379014;19;20006;-76
2024/03/08 03:23:56;;;;;;;50.38;24.33;;;10.50;99.90;;;;;;7378900;19;20062;-76
2024/03/08 03:26:25;;;;;;;56.58;25.00;;;10.50;99.90;;;;;;7378996;19;20023;-76
2024/03/08 03:28:54;;;;;;;65.78;26.23;;;10.50;99.90;;;;;;7399939;19;20007;-77
2024/03/08 03:31:25;;;;;;;51.83;23.88;;;10.50;99.90;;;;;;7377937;19;20020;-77
2024/03/08 03:33:54;;;;;;;58.63;24.77;;;10.50;99.90;;;;;;7378431;19;20487;-76
2024/03/08 03:36:24;;;;;;;59.88;26.23;;;10.50;99.90;;;;;;7378859;19;20023;-75
2024/03/08 03:39:04;;;;;;;47.63;23.25;;;10.50;99.90;;;;;;7378214;19;20026;-76
2024/03/08 03:41:34;;;;;;;51.05;24.10;;;10.40;99.90;;;;;;7379408;19;20094;-76
2024/03/08 03:44:05;;;;;;;62.53;25.65;;;10.50;99.90;;;;;;7399825;19;20241;-77
2024/03/08 03:46:36;;;;;;;60.55;24.92;;;10.40;99.90;;;;;;7377708;19;20002;-76
2024/03/08 03:49:07;;;;;;;65.88;25.17;;;10.40;99.90;;;;;;7376627;19;20007;-76
2024/03/08 03:51:36;;;;;;;66.78;23.73;;;10.40;99.90;;;;;;7378274;19;20013;-76
2024/03/08 03:54:05;;;;;;;53.58;24.75;;;10.40;99.90;;;;;;7378008;19;20023;-75
2024/03/08 03:56:34;;;;;;;54.25;24.00;;;10.40;99.90;;;;;;7377900;19;20011;-76
2024/03/08 03:59:03;;;;;;;59.88;25.27;;;10.40;99.90;;;;;;7399601;19;20002;-75
2024/03/08 04:01:32;;;;;;;53.78;26.63;;;10.40;99.90;;;;;;7377154;19;20016;-75
2024/03/08 04:04:04;;;;;;;59.95;25.67;;;10.40;99.90;;;;;;7377965;19;20011;-76
2024/03/08 04:06:33;;;;;;;52.08;25.58;;;10.30;99.90;;;;;;7377837;19;20030;-76
2024/03/08 04:09:03;;;;;;;53.75;24.48;;;10.30;99.90;;;;;;7378581;19;20023;-76
2024/03/08 04:11:31;;;;;;;53.05;25.10;;;10.30;99.90;;;;;;7385297;19;20279;-76
2024/03/08 04:14:00;;;;;;;56.33;25.00;;;10.30;99.90;;;;;;7406326;19;20019;-76
2024/03/08 04:16:29;;;;;;;55.00;25.25;;;10.30;99.90;;;;;;7384081;19;20058;-75
2024/03/08 04:18:57;;;;;;;57.75;25.35;;;10.30;99.90;;;;;;7384162;19;20019;-76
2024/03/08 04:21:29;;;;;;;53.22;24.60;;;10.20;99.90;;;;;;7384823;19;20006;-75
2024/03/08 04:23:57;;;;;;;51.17;23.70;;;10.20;99.90;;;;;;7383211;19;20010;-76
2024/03/08 04:26:26;;;;;;;51.58;23.20;;;10.20;99.90;;;;;;7384749;19;20010;-75
2024/03/08 04:28:55;;;;;;;60.45;24.40;;;10.20;99.90;;;;;;7405231;19;20015;-75
2024/03/08 04:31:26;;;;;;;51.10;23.38;;;10.20;99.90;;;;;;7384621;19;20006;-75
2024/03/08 04:33:55;;;;;;;53.67;24.98;;;10.20;99.90;;;;;;7384245;19;20387;-76
2024/03/08 04:36:24;;;;;;;53.55;25.75;;;10.20;99.90;;;;;;7383064;19;20022;-77
2024/03/08 04:38:56;;;;;;;56.45;24.83;;;10.10;99.90;;;;;;7387753;19;20103;-77
2024/03/08 04:41:24;;;;;;;57.15;26.50;;;10.10;99.90;;;;;;7384160;19;20034;-76
2024/03/08 04:43:53;;;;;;;49.60;23.00;;;10.10;99.90;;;;;;7418854;19;20017;-76
2024/03/08 04:46:22;;;;;;;47.90;23.17;;;10.10;99.90;;;;;;7396639;19;20019;-77
2024/03/08 04:48:51;;;;;;;63.97;25.30;;;10.10;99.90;;;;;;7397532;19;20006;-76
2024/03/08 04:51:19;;;;;;;56.53;26.23;;;10.00;99.90;;;;;;7397366;19;20015;-76
2024/03/08 04:53:48;;;;;;;58.92;26.27;;;10.10;99.90;;;;;;7395658;19;20007;-76
2024/03/08 04:56:19;;;;;;;57.42;23.92;;;10.10;99.90;;;;;;7395794;19;20006;-76
2024/03/08 04:58:49;;;;;;;59.13;23.77;;;10.10;99.90;;;;;;7406855;19;20054;-76
2024/03/08 05:01:18;;;;;;;56.20;24.85;;;10.10;99.90;;;;;;7381387;19;20020;-76
2024/03/08 05:03:49;;;;;;;54.15;23.95;;;10.10;99.90;;;;;;7383394;19;19999;-76
2024/03/08 05:06:20;;;;;;;63.42;24.50;;;10.00;99.90;;;;;;7383927;19;20002;-76
2024/03/08 05:08:49;;;;;;;56.00;24.70;;;10.10;99.90;;;;;;7381182;19;20361;-76
2024/03/08 05:11:20;;;;;;;57.85;23.70;;;10.10;99.90;;;;;;7405303;19;20365;-76
2024/03/08 05:13:51;;;;;;;58.92;24.88;;;10.00;99.90;;;;;;7383525;19;20027;-76
2024/03/08 05:16:22;;;;;;;44.50;22.73;;;10.00;99.90;;;;;;7382618;19;20062;-75
2024/03/08 05:18:52;;;;;;;55.90;24.05;;;10.00;99.90;;;;;;7383174;19;20003;-75
2024/03/08 05:21:21;;;;;;;50.88;24.73;;;10.00;99.90;;;;;;7380995;19;20015;-75
2024/03/08 05:23:50;;;;;;;55.15;23.13;;;10.00;99.90;;;;;;7382964;19;20006;-76
2024/03/08 05:26:22;;;;;;;58.35;24.98;;;10.00;99.90;;;;;;7400842;19;20021;-76
2024/03/08 05:28:51;;;;;;;51.30;24.30;;;9.90;99.90;;;;;;7403507;19;20007;-76
2024/03/08 05:31:26;;;;;;;52.80;24.20;;;9.90;99.90;;;;;;7382059;19;20009;-76
2024/03/08 05:33:58;;;;;;;60.95;22.77;;;9.90;99.90;;;;;;7383710;19;20041;-76
2024/03/08 05:36:28;;;;;;;54.20;23.33;;;9.90;99.90;;;;;;7382494;19;19999;-76
2024/03/08 05:38:57;;;;;;;61.47;23.60;;;10.00;99.90;;;;;;7382480;19;20006;-76
2024/03/08 05:41:28;;;;;;;51.42;23.38;;;9.90;99.90;;;;;;7381005;19;20697;-76
2024/03/08 05:43:57;;;;;;;49.50;23.08;;;9.90;99.90;;;;;;7403495;19;20010;-77
2024/03/08 05:46:26;;;;;;;54.28;23.77;;;9.90;99.90;;;;;;7381600;19;20003;-76
2024/03/08 05:48:55;;;;;;;50.75;23.05;;;9.90;99.90;;;;;;7381735;19;20319;-76
2024/03/08 05:51:28;;;;;;;53.70;23.58;;;9.90;99.90;;;;;;7382157;19;20019;-77
2024/03/08 05:54:01;;;;;;;51.70;22.67;;;9.90;99.90;;;;;;7383464;19;20011;-75
2024/03/08 05:56:32;;;;;;;48.45;22.38;;;9.80;99.90;;;;;;7383036;19;20013;-76
2024/03/08 05:59:01;;;;;;;50.25;22.52;;;9.80;99.90;;;;;;7403676;19;20010;-76
2024/03/08 06:01:30;;;;;;;49.50;22.25;;;9.70;99.90;;;;;;7380728;19;20045;-76
2024/03/08 06:03:59;;;;;;;51.13;22.58;;;9.70;99.90;;;;;;7381449;19;20043;-75
2024/03/08 06:06:29;;;;;;;47.83;22.55;;;9.70;99.90;;;;;;7381420;19;20014;-76
2024/03/08 06:08:58;;;;;;;54.33;23.30;;;9.60;99.90;;;;;;7380606;19;20015;-77
2024/03/08 06:11:30;;;;;;;53.47;23.80;;;9.60;99.90;;;;;;7382804;19;20015;-76
2024/03/08 06:14:02;;;;;;;48.80;21.92;;;9.60;99.90;;;;;;7404025;19;20058;-76
2024/03/08 06:16:31;;;;;;;50.42;22.60;;;9.60;99.90;;;;;;7380841;19;20087;-77
2024/03/08 06:19:02;;;;;;;60.60;22.88;;;9.60;99.90;;;;;;7381378;19;20023;-78
2024/03/08 06:21:31;;;;;;;50.67;22.27;;;9.60;99.90;;;;;;7383741;19;20091;-76
2024/03/08 06:24:00;;;;;;;52.40;23.30;;;9.50;99.90;;;;;;7383968;19;20014;-80
2024/03/08 06:26:32;;;;;;;57.78;23.20;;;9.60;99.90;;;;;;7383011;19;20013;-80
2024/03/08 06:29:06;;;;;;;45.97;21.58;;;9.60;99.90;;;;;;7404407;19;20010;-82
2024/03/08 06:31:38;;;;;;;57.17;24.30;;;9.60;99.90;;;;;;7383634;19;20015;-82
2024/03/08 06:34:07;;;;;;;55.75;22.38;;;9.60;99.90;;;;;;7383698;19;20021;-82
2024/03/08 06:36:38;;;;;;;56.28;23.02;;;9.60;99.90;;;;;;7385230;19;20015;-81
2024/03/08 06:39:09;;;;;;;49.92;23.58;;;9.70;99.90;;;;;;7383019;19;20024;-82
2024/03/08 06:41:40;;;;;;;50.07;22.10;;;9.70;99.90;;;;;;7382143;19;20011;-81
2024/03/08 06:44:13;;;;;;;53.28;22.67;;;9.70;99.90;;;;;;7407168;19;20006;-82
2024/03/08 06:46:42;;;;;;;49.95;21.80;;;9.70;99.90;;;;;;7386727;19;20007;-81
2024/03/08 06:49:11;;;;;;;51.08;23.15;;;9.70;99.90;;;;;;7391113;19;20007;-82
2024/03/08 06:51:47;;;;;;;63.33;22.65;;;9.70;99.90;;;;;;7387407;19;20003;-81
2024/03/08 06:54:16;;;;;;;56.00;23.15;;;9.70;99.90;;;;;;7386974;19;20010;-81
2024/03/08 06:56:48;;;;;;;49.10;21.85;;;9.70;99.90;;;;;;7387455;19;20024;-81
2024/03/08 06:59:19;;;;;;;49.28;23.35;;;9.70;99.90;;;;;;7410995;19;20007;-81
2024/03/08 07:01:48;;;;;;;;;;;9.70;99.90;;;;;;7388142;19;20002;-81
2024/03/08 07:04:17;;;;;;;59.20;26.00;;;9.80;99.90;;;;;;7383922;19;20206;-81
2024/03/08 07:06:49;;;;;;;59.10;23.40;;;9.80;99.90;;;;;;7382873;19;20002;-81
2024/03/08 07:09:20;;;;;;;46.70;23.27;;;9.80;99.90;;;;;;7383611;19;20026;-81
2024/03/08 07:11:54;;;;;;;60.20;24.53;;;9.90;99.90;;;;;;7384062;19;20023;-81
2024/03/08 07:14:31;;;;;;;60.00;23.08;;;9.90;99.90;;;;;;7406073;19;20279;-81
2024/03/08 07:17:00;;;;;;;49.55;24.38;;;10.00;99.90;;;;;;7389475;19;20007;-80
2024/03/08 07:19:29;;;;;;;54.25;23.02;;;10.00;99.90;;;;;;7381207;19;20003;-80
2024/03/08 07:21:58;;;;;;;55.45;23.92;;;10.00;99.90;;;;;;7383198;19;20006;-82
2024/03/08 07:24:40;;;;;;;57.55;23.85;;;10.10;99.90;;;;;;7382507;19;20015;-81
2024/03/08 07:27:06;;;;;;;65.80;23.58;;;10.20;99.90;;;;;;7383306;19;20662;-81
2024/03/08 07:29:37;;;;;;;51.67;23.58;;;10.20;99.90;;;;;;7386154;19;20372;-81
2024/03/08 07:32:19;;;;;;;59.13;25.10;;;10.30;99.90;;;;;;7409991;19;20003;-81
2024/03/08 07:34:48;;;;;;;53.65;21.42;;;10.40;99.90;;;;;;7385234;19;20022;-80
2024/03/08 07:37:17;;;;;;;55.05;24.35;;;10.40;99.90;;;;;;7384556;19;20254;-82
2024/03/08 07:39:46;;;;;;;57.45;24.35;;;10.50;99.90;;;;;;7389548;19;20013;-81
2024/03/08 07:42:14;;;;;;;58.08;24.48;;;10.50;99.90;;;;;;7389990;19;20457;-81
2024/03/08 07:44:48;;;;;;;57.00;24.02;;;10.60;99.90;;;;;;7389739;19;20030;-81
2024/03/08 07:47:19;;;;;;;54.53;23.20;;;10.60;99.90;;;;;;7405243;19;20099;-81
2024/03/08 07:49:50;;;;;;;50.92;23.00;;;10.60;99.90;;;;;;7382072;19;20010;-81
2024/03/08 07:52:22;;;;;;;51.45;21.67;;;10.50;99.90;;;;;;7382991;19;20011;-80
2024/03/08 07:54:53;;;;;;;45.03;21.15;;;10.60;99.90;;;;;;7383658;19;20099;-81
2024/03/08 07:57:22;;;;;;;55.20;21.98;;;10.50;99.90;;;;;;7386057;19;20010;-81
2024/03/08 07:59:53;;;;;;;49.30;22.08;;;10.50;99.90;;;;;;7381343;19;20254;-81
2024/03/08 08:02:23;;;;;;;53.85;22.95;;;10.50;99.90;;;;;;7402715;19;20023;-82
2024/03/08 08:04:54;;;;;;;52.70;22.42;;;10.50;99.90;;;;;;7380344;19;20022;-82
2024/03/08 08:07:25;;;;;;;53.10;21.92;;;10.50;99.90;;;;;;7382157;19;20022;-82
2024/03/08 08:09:57;;;;;;;53.88;22.23;;;10.50;99.90;;;;;;7384045;19;20011;-82
2024/03/08 08:12:47;;;;;;;49.05;22.95;;;10.60;99.90;;;;;;7386613;19;20013;-82
2024/03/08 08:15:37;;;;;;;52.05;22.15;;;10.60;99.90;;;;;;7380482;19;20167;-82
2024/03/08 08:18:15;;;;;;;53.90;21.70;;;10.60;99.90;;;;;;7380738;19;20009;-83
2024/03/08 08:21:07;;;;;;;53.97;22.67;;;10.60;99.90;;;;;;7381675;19;20035;-82
2024/03/08 08:23:52;;;;;;;;;;;;;;;;;;;;;
2024/03/08 08:29:25;;;;;;;45.13;21.05;;;10.70;99.90;;;;;;7358657;19;20027;-83
2024/03/08 08:32:10;;;;;;;54.22;21.85;;;10.80;99.90;;;;;;7402045;19;20011;-81
2024/03/08 08:34:42;;;;;;;45.75;21.15;;;10.80;99.90;;;;;;7381137;19;20237;-81
2024/03/08 08:41:00;;;;;;;43.42;20.85;;;10.90;99.90;;;;;;7384737;19;20038;-83
2024/03/08 08:47:11;;;;;;;46.08;19.17;;;10.90;99.90;;;;;;7399761;19;20366;-82
2024/03/08 08:53:43;;;;;;;50.88;21.27;;;11.10;99.90;;;;;;7377100;19;20104;-82
2024/03/08 08:56:36;;;;;;;50.63;20.67;;;11.10;99.90;;;;;;7379718;19;20007;-82
2024/03/08 08:59:52;;;;;;;47.03;20.70;;;11.10;99.90;;;;;;7385061;19;20013;-82
2024/03/08 09:02:48;;;;;;;46.25;18.80;;;11.20;99.90;;;;;;7376033;19;19994;-82
2024/03/08 09:05:45;;;;;;;43.08;18.77;;;11.10;99.90;;;;;;7383318;19;20062;-82
2024/03/08 09:11:39;;;;;;;48.42;18.02;;;11.30;99.90;;;;;;7279199;19;2004742;-81
2024/03/08 09:14:39;;;;;;;39.63;19.02;;;11.30;99.90;;;;;;7403684;19;20010;-82
2024/03/08 09:17:20;;;;;;;43.28;18.17;;;11.30;99.90;;;;;;7383833;19;20060;-81
2024/03/08 09:20:08;;;;;;;42.35;19.17;;;11.30;99.90;;;;;;7386066;19;20032;-81
2024/03/08 09:32:18;;;;;;;42.22;17.98;;;11.40;99.90;;;;;;7384077;19;20049;-83
2024/03/08 09:35:18;;;;;;;46.45;17.90;;;11.50;99.90;;;;;;7391203;19;20007;-81
2024/03/08 09:44:58;;;;;;;;;;;;;;;;;;;;;
2024/03/08 10:04:32;;;;;;;;;;;;;;;;;;;;;
2024/03/08 10:40:40;;;;;;;28.67;14.68;;;12.10;99.90;;;;;;6448830;19;18798567;-82
2024/03/08 10:43:50;;;;;;;;;;;;;;;;;;;;;
2024/03/08 10:46:55;;;;;;;27.75;14.02;;;12.40;99.90;;;;;;7419271;19;19998;-82
2024/03/08 10:50:16;;;;;;;;;;;;;;;;;;;;;
2024/03/08 10:53:19;;;;;;;28.48;13.70;;;12.60;99.90;;;;;;7415087;19;20014;-83
2024/03/08 10:56:50;;;;;;;;;;;;;;;;;;;;;
2024/03/08 10:59:36;;;;;;;28.88;12.13;;;12.70;99.90;;;;;;7421796;19;20723;-81
2024/03/08 11:09:42;;;;;;;;;;;;;;;;;;;;;
2024/03/08 11:16:22;;;;;;;;;;;;;;;;;;;;;
2024/03/08 11:35:51;;;;;;;18.60;9.13;;;12.90;99.90;;;;;;6596001;19;15099314;-81
2024/03/08 11:38:51;;;;;;;22.98;9.50;;;13.20;99.90;;;;;;7416469;19;20101;-81
2024/03/08 11:41:45;;;;;;;;;;;;;;;;;;;;;
2024/03/08 11:44:55;;;;;;;20.88;9.25;;;13.30;99.90;;;;;;7414474;19;20736;-82
2024/03/08 11:48:01;;;;;;;24.33;9.23;;;13.40;99.90;;;;;;7392321;19;20034;-82
2024/03/08 11:51:14;;;;;;;22.48;9.45;;;13.40;99.90;;;;;;7433591;19;20074;-81
2024/03/08 11:54:20;;;;;;;18.58;8.65;;;13.50;99.90;;;;;;7311474;19;2005998;-82
2024/03/08 11:57:05;;;;;;;17.30;8.65;;;13.60;99.90;;;;;;7422706;19;20078;-81
2024/03/08 12:03:09;;;;;;;20.23;9.70;;;13.60;99.90;;;;;;7415328;19;20006;-83
2024/03/08 12:16:22;;;;;;;20.40;7.82;;;14.00;99.90;;;;;;7389816;19;20459;-83
2024/03/08 12:19:06;;;;;;;14.85;7.43;;;14.10;99.90;;;;;;7440065;19;20078;-83
2024/03/08 12:21:46;;;;;;;15.38;7.80;;;14.10;99.90;;;;;;7418001;19;20026;-82
2024/03/08 12:24:19;;;;;;;28.50;7.53;;;14.10;99.90;;;;;;7417965;19;20028;-75
2024/03/08 12:26:49;;;;;;;18.88;8.73;;;14.20;99.90;;;;;;7409821;19;20003;-75
2024/03/08 12:29:22;;;;;;;17.80;7.55;;;14.30;99.90;;;;;;7428030;19;20002;-73
2024/03/08 12:31:53;;;;;;;20.20;7.90;;;14.30;99.90;;;;;;7408713;19;20003;-76
2024/03/08 12:34:22;;;;;;;18.15;7.20;;;14.30;99.90;;;;;;7401685;19;20023;-74
2024/03/08 12:36:54;;;;;;;14.82;7.38;;;14.40;99.90;;;;;;7380639;19;20056;-73
2024/03/08 12:39:26;;;;;;;21.60;7.30;;;14.40;99.90;;;;;;7380845;19;20003;-75
2024/03/08 12:41:56;;;;;;;13.43;7.22;;;14.40;99.90;;;;;;7379809;19;20250;-75
2024/03/08 12:44:28;;;;;;;14.65;7.13;;;14.50;99.90;;;;;;7400377;19;20007;-74
2024/03/08 12:46:58;;;;;;;12.57;6.45;;;14.60;99.90;;;;;;7379938;19;20033;-76
2024/03/08 12:49:27;;;;;;;12.60;6.68;;;14.60;99.90;;;;;;7380067;19;20007;-74
2024/03/08 12:51:58;;;;;;;15.90;6.93;;;14.70;99.90;;;;;;7379639;19;20006;-73
2024/03/08 12:54:28;;;;;;;18.13;7.68;;;14.80;99.90;;;;;;7382090;19;20075;-74
2024/03/08 12:56:58;;;;;;;16.98;7.38;;;14.90;99.90;;;;;;7383792;19;20010;-74
2024/03/08 12:59:26;;;;;;;15.35;7.05;;;15.10;99.90;;;;;;7407230;19;20078;-74
2024/03/08 13:01:58;;;;;;;16.92;6.47;;;15.10;99.90;;;;;;7386171;19;20266;-75
2024/03/08 13:04:27;;;;;;;12.23;6.35;;;15.20;99.90;;;;;;7386179;19;20405;-76
2024/03/08 13:06:58;;;;;;;17.23;5.82;;;15.30;99.90;;;;;;7386881;19;20404;-72
2024/03/08 13:09:27;;;;;;;16.73;6.97;;;15.30;99.90;;;;;;7386261;19;20034;-73
2024/03/08 13:11:58;;;;;;;21.67;7.05;;;15.40;99.90;;;;;;7384517;19;20031;-76
2024/03/08 13:14:27;;;;;;;15.68;6.43;;;15.40;99.90;;;;;;7406544;19;20365;-76
2024/03/08 13:16:57;;;;;;;12.35;6.78;;;15.40;99.90;;;;;;7379779;19;20010;-74
2024/03/08 13:19:27;;;;;;;13.43;6.47;;;15.40;99.90;;;;;;7383767;19;19999;-73
2024/03/08 13:22:04;;;;;;;12.23;6.13;;;15.40;99.90;;;;;;7384087;19;20067;-74
2024/03/08 13:24:33;;;;;;;15.98;6.80;;;15.40;99.90;;;;;;7383694;19;20030;-77
2024/03/08 13:27:02;;;;;;;16.83;6.00;;;15.40;99.90;;;;;;7381782;19;20291;-78
2024/03/08 13:29:33;;;;;;;15.00;6.25;;;15.40;99.90;;;;;;7403082;19;20542;-74
2024/03/08 13:32:03;;;;;;;12.90;5.95;;;15.40;99.90;;;;;;7380854;19;20007;-74
2024/03/08 13:34:34;;;;;;;15.25;6.47;;;15.40;99.90;;;;;;7379490;19;20014;-75
2024/03/08 13:37:06;;;;;;;12.55;5.35;;;15.40;99.90;;;;;;7380518;19;20372;-75
2024/03/08 13:39:40;;;;;;;;;;;15.40;99.90;;;;;;7381918;19;19998;-73
2024/03/08 13:42:12;;;;;;;12.05;5.00;;;15.40;99.90;;;;;;7381929;19;19911;-74
2024/03/08 13:44:42;;;;;;;16.02;5.40;;;15.40;99.90;;;;;;7401235;19;20006;-75
2024/03/08 13:47:11;;;;;;;14.77;4.93;;;15.40;99.90;;;;;;7378512;19;20003;-74
2024/03/08 13:49:40;;;;;;;12.48;5.13;;;15.40;99.90;;;;;;7380469;19;20003;-73
2024/03/08 13:52:12;;;;;;;11.80;4.85;;;15.40;99.90;;;;;;7380744;19;20016;-73
2024/03/08 13:54:41;;;;;;;21.05;5.80;;;15.50;99.90;;;;;;7380781;19;20055;-73
2024/03/08 13:57:10;;;;;;;10.88;4.88;;;15.50;99.90;;;;;;7380916;19;20011;-74
2024/03/08 13:59:39;;;;;;;12.13;4.85;;;15.50;99.90;;;;;;7401382;19;20378;-74
2024/03/08 14:02:13;;;;;;;7.72;4.05;;;15.60;99.90;;;;;;7379464;19;20026;-74
2024/03/08 14:04:42;;;;;;;6.93;3.88;;;15.60;99.90;;;;;;7378781;19;20096;-76
2024/03/08 14:07:13;;;;;;;82.50;36.08;;;15.60;99.90;;;;;;7380004;19;20006;-76
2024/03/08 14:09:43;;;;;;;59.17;27.40;;;15.60;99.90;;;;;;7381654;19;20020;-77
2024/03/08 14:12:12;;;;;;;18.33;8.75;;;15.60;99.90;;;;;;7380191;19;20023;-75
2024/03/08 14:14:41;;;;;;;16.65;6.38;;;15.60;99.90;;;;;;7407382;19;20014;-74
2024/03/08 14:17:15;;;;;;;16.80;6.50;;;15.60;99.90;;;;;;7381076;19;20026;-73
2024/03/08 14:19:44;;;;;;;14.40;5.72;;;15.60;99.90;;;;;;7379396;19;19999;-75
2024/03/08 14:22:15;;;;;;;7.13;3.95;;;15.60;99.90;;;;;;7382535;19;20059;-79
2024/03/08 14:25:34;;;;;;;5.95;3.10;;;15.60;99.90;;;;;;7359225;19;20023;-82
2024/03/08 14:31:29;;;;;;;9.13;3.45;;;15.80;99.90;;;;;;7382856;19;20002;-81
2024/03/08 14:33:59;;;;;;;10.32;5.63;;;15.80;99.90;;;;;;7377552;19;20018;-75
2024/03/08 14:36:28;;;;;;;31.85;15.73;;;15.90;99.90;;;;;;7378289;19;20013;-78
2024/03/08 14:38:59;;;;;;;25.70;10.77;;;15.90;99.90;;;;;;7376982;19;20007;-77
2024/03/08 14:41:29;;;;;;;16.58;6.70;;;15.90;99.90;;;;;;7398245;19;20089;-75
2024/03/08 14:43:59;;;;;;;15.52;6.05;;;15.90;99.90;;;;;;7376214;19;20009;-76
2024/03/08 14:46:28;;;;;;;5.78;3.15;;;15.90;99.90;;;;;;7377583;19;20115;-74
2024/03/08 14:48:57;;;;;;;9.02;2.97;;;15.90;99.90;;;;;;7380589;19;20398;-77
2024/03/08 14:51:28;;;;;;;11.68;4.78;;;15.90;99.90;;;;;;7378508;19;20039;-77
2024/03/08 14:54:00;;;;;;;12.18;4.20;;;15.90;99.90;;;;;;7378080;19;20078;-79
2024/03/08 14:56:28;;;;;;;6.85;2.60;;;16.00;99.90;;;;;;7399437;19;20011;-77
2024/03/08 14:58:59;;;;;;;12.05;3.60;;;16.00;99.90;;;;;;7375688;19;20094;-77
2024/03/08 15:01:29;;;;;;;15.68;3.67;;;16.10;99.90;;;;;;7379516;19;20022;-78
2024/03/08 15:04:02;;;;;;;6.15;3.50;;;16.20;99.90;;;;;;7379963;19;20007;-78
2024/03/08 15:06:33;;;;;;;5.15;2.60;;;16.20;99.90;;;;;;7378748;19;20007;-80
2024/03/08 15:09:11;;;;;;;10.18;3.13;;;16.20;99.90;;;;;;7380093;19;20078;-76
2024/03/08 15:11:39;;;;;;;7.40;3.90;;;16.20;99.90;;;;;;7401012;19;20017;-76
2024/03/08 15:14:11;;;;;;;4.25;2.40;;;16.30;99.90;;;;;;7378641;19;20026;-74
2024/03/08 15:16:42;;;;;;;15.70;5.13;;;16.30;99.90;;;;;;7378552;19;20429;-77
2024/03/08 15:19:11;;;;;;;11.53;3.30;;;16.30;99.90;;;;;;7378550;19;20380;-74
2024/03/08 15:21:42;;;;;;;4.68;2.78;;;16.40;99.90;;;;;;7377197;19;20379;-72
2024/03/08 15:24:15;;;;;;;6.60;2.25;;;16.40;99.90;;;;;;7378200;19;20026;-72